sensor_id;sensor_type;location;lat;lon;timestamp;pressure;altitude;pressure_sealevel;temperature;humidity
79221;BME280;72175;52.118;5.406;2023-08-31T00:00:51;100827.97;;;19.83;58.57
79221;BME280;72175;52.118;5.406;2023-08-31T00:03:18;100831.69;;;19.82;58.42
79221;BME280;72175;52.118;5.406;2023-08-31T00:05:45;100836.88;;;19.83;58.58
79221;BME280;72175;52.118;5.406;2023-08-31T00:08:13;100837.06;;;19.82;58.44
79221;BME280;72175;52.118;5.406;2023-08-31T00:10:39;100837.88;;;19.82;58.50
79221;BME280;72175;52.118;5.406;2023-08-31T00:13:06;100841.41;;;19.83;58.38
79221;BME280;72175;52.118;5.406;2023-08-31T00:15:34;100841.59;;;19.81;58.36
79221;BME280;72175;52.118;5.406;2023-08-31T00:18:03;100835.22;;;19.82;58.21
79221;BME280;72175;52.118;5.406;2023-08-31T00:20:32;100830.03;;;19.81;58.44
79221;BME280;72175;52.118;5.406;2023-08-31T00:23:01;100826.53;;;19.80;58.43
79221;BME280;72175;52.118;5.406;2023-08-31T00:25:28;100836.22;;;19.81;58.51
79221;BME280;72175;52.118;5.406;2023-08-31T00:27:56;100831.91;;;19.80;58.17
79221;BME280;72175;52.118;5.406;2023-08-31T00:30:23;100826.53;;;19.80;58.28
79221;BME280;72175;52.118;5.406;2023-08-31T00:32:56;100823.84;;;19.80;58.36
79221;BME280;72175;52.118;5.406;2023-08-31T00:35:26;100831.09;;;19.80;58.22
79221;BME280;72175;52.118;5.406;2023-08-31T00:37:54;100827.56;;;19.79;58.20
79221;BME280;72175;52.118;5.406;2023-08-31T00:40:25;100835.63;;;19.79;58.32
79221;BME280;72175;52.118;5.406;2023-08-31T00:42:52;100841.00;;;19.79;58.14
79221;BME280;72175;52.118;5.406;2023-08-31T00:45:18;100838.50;;;19.78;58.20
79221;BME280;72175;52.118;5.406;2023-08-31T00:47:48;100838.31;;;19.79;58.24
79221;BME280;72175;52.118;5.406;2023-08-31T00:50:16;100841.19;;;19.78;58.36
79221;BME280;72175;52.118;5.406;2023-08-31T00:52:43;100833.13;;;19.78;57.98
79221;BME280;72175;52.118;5.406;2023-08-31T00:55:11;100835.00;;;19.77;58.30
79221;BME280;72175;52.118;5.406;2023-08-31T00:57:39;100829.63;;;19.77;58.21
79221;BME280;72175;52.118;5.406;2023-08-31T01:00:07;100829.63;;;19.77;58.19
79221;BME280;72175;52.118;5.406;2023-08-31T01:02:45;100818.06;;;19.77;58.16
79221;BME280;72175;52.118;5.406;2023-08-31T01:11:13;100832.50;;;19.76;58.10
79221;BME280;72175;52.118;5.406;2023-08-31T01:13:51;100832.50;;;19.76;58.08
79221;BME280;72175;52.118;5.406;2023-08-31T01:16:20;100829.81;;;19.76;58.28
79221;BME280;72175;52.118;5.406;2023-08-31T01:18:52;100827.31;;;19.74;58.01
79221;BME280;72175;52.118;5.406;2023-08-31T01:21:27;100828.16;;;19.75;58.12
79221;BME280;72175;52.118;5.406;2023-08-31T01:23:57;100831.69;;;19.75;58.08
79221;BME280;72175;52.118;5.406;2023-08-31T01:26:25;100830.84;;;19.75;57.88
79221;BME280;72175;52.118;5.406;2023-08-31T01:28:52;100830.00;;;19.74;57.89
79221;BME280;72175;52.118;5.406;2023-08-31T01:31:19;100834.56;;;19.74;58.06
79221;BME280;72175;52.118;5.406;2023-08-31T01:33:47;100831.03;;;19.73;57.98
79221;BME280;72175;52.118;5.406;2023-08-31T01:36:28;100831.03;;;19.73;58.21
79221;BME280;72175;52.118;5.406;2023-08-31T01:39:15;100833.72;;;19.73;58.13
79221;BME280;72175;52.118;5.406;2023-08-31T01:41:52;100830.22;;;19.73;58.17
79221;BME280;72175;52.118;5.406;2023-08-31T01:44:22;100833.72;;;19.73;57.90
79221;BME280;72175;52.118;5.406;2023-08-31T01:46:53;100832.06;;;19.72;57.87
79221;BME280;72175;52.118;5.406;2023-08-31T01:49:23;100839.09;;;19.73;57.97
79221;BME280;72175;52.118;5.406;2023-08-31T01:51:50;100833.09;;;19.71;57.98
79221;BME280;72175;52.118;5.406;2023-08-31T01:54:17;100825.88;;;19.72;57.95
79221;BME280;72175;52.118;5.406;2023-08-31T01:56:44;100833.09;;;19.71;57.99
79221;BME280;72175;52.118;5.406;2023-08-31T01:59:10;100852.72;;;19.72;57.92
79221;BME280;72175;52.118;5.406;2023-08-31T02:01:37;100855.41;;;19.72;57.86
79221;BME280;72175;52.118;5.406;2023-08-31T02:04:04;100865.31;;;19.71;57.92
79221;BME280;72175;52.118;5.406;2023-08-31T02:06:31;100859.94;;;19.71;57.85
79221;BME280;72175;52.118;5.406;2023-08-31T02:08:58;100864.47;;;19.71;58.06
79221;BME280;72175;52.118;5.406;2023-08-31T02:11:24;100869.03;;;19.70;58.04
79221;BME280;72175;52.118;5.406;2023-08-31T02:13:52;100856.41;;;19.71;58.06
79221;BME280;72175;52.118;5.406;2023-08-31T02:16:18;100867.16;;;19.71;58.05
79221;BME280;72175;52.118;5.406;2023-08-31T02:18:45;100855.59;;;19.70;58.15
79221;BME280;72175;52.118;5.406;2023-08-31T02:21:11;100846.72;;;19.70;57.95
79221;BME280;72175;52.118;5.406;2023-08-31T02:23:38;100845.88;;;19.69;57.84
79221;BME280;72175;52.118;5.406;2023-08-31T02:26:05;100853.94;;;19.69;57.89
79221;BME280;72175;52.118;5.406;2023-08-31T02:28:31;100853.94;;;19.69;57.74
79221;BME280;72175;52.118;5.406;2023-08-31T02:31:01;100863.84;;;19.69;57.73
79221;BME280;72175;52.118;5.406;2023-08-31T02:33:28;100861.16;;;19.69;57.81
79221;BME280;72175;52.118;5.406;2023-08-31T02:35:55;100859.31;;;19.69;57.86
79221;BME280;72175;52.118;5.406;2023-08-31T02:38:22;100864.88;;;19.68;57.85
79221;BME280;72175;52.118;5.406;2023-08-31T02:40:49;100862.00;;;19.69;57.98
79221;BME280;72175;52.118;5.406;2023-08-31T02:43:16;100858.47;;;19.69;57.48
79221;BME280;72175;52.118;5.406;2023-08-31T02:45:42;100857.63;;;19.68;57.70
79221;BME280;72175;52.118;5.406;2023-08-31T02:48:10;100850.63;;;19.67;57.79
79221;BME280;72175;52.118;5.406;2023-08-31T02:50:38;100851.44;;;19.68;58.00
79221;BME280;72175;52.118;5.406;2023-08-31T02:53:05;100847.09;;;19.67;57.83
79221;BME280;72175;52.118;5.406;2023-08-31T02:55:32;100850.63;;;19.67;57.66
79221;BME280;72175;52.118;5.406;2023-08-31T02:57:59;100849.59;;;19.68;57.88
79221;BME280;72175;52.118;5.406;2023-08-31T03:00:27;100847.09;;;19.67;57.72
79221;BME280;72175;52.118;5.406;2023-08-31T03:02:54;100843.59;;;19.66;58.00
79221;BME280;72175;52.118;5.406;2023-08-31T03:05:21;100845.25;;;19.67;57.82
79221;BME280;72175;52.118;5.406;2023-08-31T03:07:47;100848.13;;;19.66;57.82
79221;BME280;72175;52.118;5.406;2023-08-31T03:10:14;100848.13;;;19.66;57.60
79221;BME280;72175;52.118;5.406;2023-08-31T03:12:46;100853.50;;;19.66;57.84
79221;BME280;72175;52.118;5.406;2023-08-31T03:15:12;100854.31;;;19.66;57.77
79221;BME280;72175;52.118;5.406;2023-08-31T03:17:39;100848.13;;;19.66;57.78
79221;BME280;72175;52.118;5.406;2023-08-31T03:20:06;100848.13;;;19.66;57.71
79221;BME280;72175;52.118;5.406;2023-08-31T03:22:33;100847.28;;;19.65;57.98
79221;BME280;72175;52.118;5.406;2023-08-31T03:25:00;100849.16;;;19.65;57.86
79221;BME280;72175;52.118;5.406;2023-08-31T03:27:27;100860.94;;;19.64;57.86
79221;BME280;72175;52.118;5.406;2023-08-31T03:29:54;100859.88;;;19.65;57.60
79221;BME280;72175;52.118;5.406;2023-08-31T03:32:20;100861.53;;;19.66;58.08
79221;BME280;72175;52.118;5.406;2023-08-31T03:34:47;100860.94;;;19.64;57.71
79221;BME280;72175;52.118;5.406;2023-08-31T03:37:13;100853.72;;;19.64;57.82
79221;BME280;72175;52.118;5.406;2023-08-31T03:39:40;100844.00;;;19.63;57.87
79221;BME280;72175;52.118;5.406;2023-08-31T03:42:08;100846.69;;;19.63;57.56
79221;BME280;72175;52.118;5.406;2023-08-31T03:44:35;100846.69;;;19.63;58.12
79221;BME280;72175;52.118;5.406;2023-08-31T03:47:03;100850.41;;;19.62;57.84
79221;BME280;72175;52.118;5.406;2023-08-31T03:49:30;100860.13;;;19.63;57.69
79221;BME280;72175;52.118;5.406;2023-08-31T03:51:58;100864.66;;;19.63;57.73
79221;BME280;72175;52.118;5.406;2023-08-31T03:54:24;100866.50;;;19.62;57.71
79221;BME280;72175;52.118;5.406;2023-08-31T03:56:51;100871.88;;;19.62;57.88
79221;BME280;72175;52.118;5.406;2023-08-31T03:59:17;100871.69;;;19.64;57.75
79221;BME280;72175;52.118;5.406;2023-08-31T04:01:44;100873.72;;;19.62;57.95
79221;BME280;72175;52.118;5.406;2023-08-31T04:04:12;100871.88;;;19.62;57.90
79221;BME280;72175;52.118;5.406;2023-08-31T04:06:39;100867.53;;;19.61;57.66
79221;BME280;72175;52.118;5.406;2023-08-31T04:09:05;100872.91;;;19.61;57.72
79221;BME280;72175;52.118;5.406;2023-08-31T04:11:33;100878.25;;;19.61;57.90
79221;BME280;72175;52.118;5.406;2023-08-31T04:14:00;100880.94;;;19.61;57.90
79221;BME280;72175;52.118;5.406;2023-08-31T04:16:27;100871.22;;;19.60;57.86
79221;BME280;72175;52.118;5.406;2023-08-31T04:18:55;100884.66;;;19.60;57.90
79221;BME280;72175;52.118;5.406;2023-08-31T04:21:21;100881.16;;;19.60;57.85
79221;BME280;72175;52.118;5.406;2023-08-31T04:23:48;100881.16;;;19.60;57.78
79221;BME280;72175;52.118;5.406;2023-08-31T04:26:14;100880.31;;;19.59;57.77
79221;BME280;72175;52.118;5.406;2023-08-31T04:28:41;100883.81;;;19.60;57.81
79221;BME280;72175;52.118;5.406;2023-08-31T04:31:08;100879.47;;;19.59;57.87
79221;BME280;72175;52.118;5.406;2023-08-31T04:33:36;100877.63;;;19.59;57.70
79221;BME280;72175;52.118;5.406;2023-08-31T04:36:04;100883.00;;;19.59;57.77
79221;BME280;72175;52.118;5.406;2023-08-31T04:38:31;100892.91;;;19.59;57.83
79221;BME280;72175;52.118;5.406;2023-08-31T04:40:58;100884.03;;;19.58;57.84
79221;BME280;72175;52.118;5.406;2023-08-31T04:43:26;100888.56;;;19.58;57.85
79221;BME280;72175;52.118;5.406;2023-08-31T04:45:53;100904.47;;;19.59;57.69
79221;BME280;72175;52.118;5.406;2023-08-31T04:48:20;100894.75;;;19.58;57.84
79221;BME280;72175;52.118;5.406;2023-08-31T04:50:47;100900.13;;;19.58;57.75
79221;BME280;72175;52.118;5.406;2023-08-31T04:53:14;100909.19;;;19.57;57.94
79221;BME280;72175;52.118;5.406;2023-08-31T04:55:41;100906.53;;;19.57;57.95
79221;BME280;72175;52.118;5.406;2023-08-31T04:58:07;100909.19;;;19.57;57.55
79221;BME280;72175;52.118;5.406;2023-08-31T05:00:34;100925.31;;;19.57;57.58
79221;BME280;72175;52.118;5.406;2023-08-31T05:03:01;100925.31;;;19.57;57.70
79221;BME280;72175;52.118;5.406;2023-08-31T05:05:29;100929.84;;;19.56;57.78
79221;BME280;72175;52.118;5.406;2023-08-31T05:07:57;100925.31;;;19.57;57.86
79221;BME280;72175;52.118;5.406;2023-08-31T05:10:25;100933.34;;;19.57;57.78
79221;BME280;72175;52.118;5.406;2023-08-31T05:12:52;100932.53;;;19.56;57.84
79221;BME280;72175;52.118;5.406;2023-08-31T05:15:18;100929.00;;;19.56;57.75
79221;BME280;72175;52.118;5.406;2023-08-31T05:17:45;100937.06;;;19.56;57.79
79221;BME280;72175;52.118;5.406;2023-08-31T05:20:11;100933.56;;;19.55;57.54
79221;BME280;72175;52.118;5.406;2023-08-31T05:22:39;100942.44;;;19.56;57.78
79221;BME280;72175;52.118;5.406;2023-08-31T05:25:05;100942.44;;;19.56;57.64
79221;BME280;72175;52.118;5.406;2023-08-31T05:27:32;100933.56;;;19.55;57.86
79221;BME280;72175;52.118;5.406;2023-08-31T05:29:59;100944.28;;;19.55;57.73
79221;BME280;72175;52.118;5.406;2023-08-31T05:32:28;100947.16;;;19.54;57.82
79221;BME280;72175;52.118;5.406;2023-08-31T05:34:55;100943.47;;;19.55;57.98
79221;BME280;72175;52.118;5.406;2023-08-31T05:37:22;100939.13;;;19.54;57.79
79221;BME280;72175;52.118;5.406;2023-08-31T05:39:48;100944.47;;;19.54;57.89
79221;BME280;72175;52.118;5.406;2023-08-31T05:42:17;100945.50;;;19.53;57.93
79221;BME280;72175;52.118;5.406;2023-08-31T05:44:44;100948.00;;;19.54;57.96
79221;BME280;72175;52.118;5.406;2023-08-31T05:47:11;100944.47;;;19.54;57.72
79221;BME280;72175;52.118;5.406;2023-08-31T05:49:37;100943.66;;;19.53;57.91
79221;BME280;72175;52.118;5.406;2023-08-31T05:52:04;100942.81;;;19.53;57.95
79221;BME280;72175;52.118;5.406;2023-08-31T05:54:32;100951.69;;;19.53;57.85
79221;BME280;72175;52.118;5.406;2023-08-31T05:56:59;100954.56;;;19.52;57.86
79221;BME280;72175;52.118;5.406;2023-08-31T05:59:25;100971.50;;;19.52;57.83
79221;BME280;72175;52.118;5.406;2023-08-31T06:01:52;100975.22;;;19.51;57.92
79221;BME280;72175;52.118;5.406;2023-08-31T06:04:21;100986.78;;;19.52;57.92
79221;BME280;72175;52.118;5.406;2023-08-31T06:06:48;100988.44;;;19.53;57.84
79221;BME280;72175;52.118;5.406;2023-08-31T06:09:14;100991.13;;;19.53;58.01
79221;BME280;72175;52.118;5.406;2023-08-31T06:11:41;100984.94;;;19.52;57.87
79221;BME280;72175;52.118;5.406;2023-08-31T06:14:07;100989.47;;;19.52;57.98
79221;BME280;72175;52.118;5.406;2023-08-31T06:16:34;100989.28;;;19.53;57.99
79221;BME280;72175;52.118;5.406;2023-08-31T06:19:01;100990.13;;;19.54;57.94
79221;BME280;72175;52.118;5.406;2023-08-31T06:21:27;100990.94;;;19.54;57.97
79221;BME280;72175;52.118;5.406;2023-08-31T06:23:54;100991.78;;;19.55;57.82
79221;BME280;72175;52.118;5.406;2023-08-31T06:26:20;100997.16;;;19.55;57.79
79221;BME280;72175;52.118;5.406;2023-08-31T06:28:48;100986.22;;;19.56;57.95
79221;BME280;72175;52.118;5.406;2023-08-31T06:31:15;100995.94;;;19.58;57.76
79221;BME280;72175;52.118;5.406;2023-08-31T06:33:42;100996.75;;;19.58;58.07
79221;BME280;72175;52.118;5.406;2023-08-31T06:36:09;100995.75;;;19.59;58.12
79221;BME280;72175;52.118;5.406;2023-08-31T06:38:35;101000.09;;;19.60;58.37
79221;BME280;72175;52.118;5.406;2023-08-31T06:41:03;100994.53;;;19.62;58.34
79221;BME280;72175;52.118;5.406;2023-08-31T06:43:30;100993.69;;;19.61;57.86
79221;BME280;72175;52.118;5.406;2023-08-31T06:45:57;100990.81;;;19.63;57.96
79221;BME280;72175;52.118;5.406;2023-08-31T06:48:36;100997.03;;;19.63;57.85
79221;BME280;72175;52.118;5.406;2023-08-31T06:51:02;100992.50;;;19.64;58.08
79221;BME280;72175;52.118;5.406;2023-08-31T06:53:30;100996.81;;;19.65;58.06
79221;BME280;72175;52.118;5.406;2023-08-31T06:55:57;101003.84;;;19.66;58.06
79221;BME280;72175;52.118;5.406;2023-08-31T06:58:25;101003.84;;;19.66;58.11
79221;BME280;72175;52.118;5.406;2023-08-31T07:00:52;101002.81;;;19.67;58.08
79221;BME280;72175;52.118;5.406;2023-08-31T07:03:18;101006.31;;;19.67;58.01
79221;BME280;72175;52.118;5.406;2023-08-31T07:05:46;101016.69;;;19.70;57.95
79221;BME280;72175;52.118;5.406;2023-08-31T07:08:13;101014.19;;;19.69;58.03
79221;BME280;72175;52.118;5.406;2023-08-31T07:10:40;101022.88;;;19.71;58.07
79221;BME280;72175;52.118;5.406;2023-08-31T07:13:22;101018.34;;;19.71;58.31
79221;BME280;72175;52.118;5.406;2023-08-31T07:15:48;101017.53;;;19.71;58.15
79221;BME280;72175;52.118;5.406;2023-08-31T07:18:16;101029.09;;;19.71;58.29
79221;BME280;72175;52.118;5.406;2023-08-31T07:20:45;101029.94;;;19.72;58.32
79221;BME280;72175;52.118;5.406;2023-08-31T07:23:12;101028.06;;;19.72;58.04
79221;BME280;72175;52.118;5.406;2023-08-31T07:25:39;101028.06;;;19.72;58.24
79221;BME280;72175;52.118;5.406;2023-08-31T07:28:07;101032.41;;;19.73;57.95
79221;BME280;72175;52.118;5.406;2023-08-31T07:30:34;101029.72;;;19.73;58.18
79221;BME280;72175;52.118;5.406;2023-08-31T07:33:01;101039.44;;;19.74;58.03
79221;BME280;72175;52.118;5.406;2023-08-31T07:35:42;101041.31;;;19.74;58.07
79221;BME280;72175;52.118;5.406;2023-08-31T07:38:09;101037.59;;;19.75;58.00
79221;BME280;72175;52.118;5.406;2023-08-31T07:40:35;101035.75;;;19.75;58.04
79221;BME280;72175;52.118;5.406;2023-08-31T07:43:02;101037.59;;;19.75;58.08
79221;BME280;72175;52.118;5.406;2023-08-31T07:45:29;101040.09;;;19.76;58.19
79221;BME280;72175;52.118;5.406;2023-08-31T07:47:55;101045.47;;;19.76;58.02
79221;BME280;72175;52.118;5.406;2023-08-31T07:50:22;101047.31;;;19.76;58.06
79221;BME280;72175;52.118;5.406;2023-08-31T07:52:48;101060.56;;;19.77;58.16
79221;BME280;72175;52.118;5.406;2023-08-31T07:55:15;101061.38;;;19.78;58.12
79221;BME280;72175;52.118;5.406;2023-08-31T07:57:41;101050.63;;;19.78;58.28
79221;BME280;72175;52.118;5.406;2023-08-31T08:00:09;101046.09;;;19.78;58.03
79221;BME280;72175;52.118;5.406;2023-08-31T08:02:36;101061.19;;;19.79;58.13
79221;BME280;72175;52.118;5.406;2023-08-31T08:05:03;101065.53;;;19.80;58.24
79221;BME280;72175;52.118;5.406;2023-08-31T08:07:29;101061.19;;;19.79;57.91
79221;BME280;72175;52.118;5.406;2023-08-31T08:09:59;101062.03;;;19.80;58.01
79221;BME280;72175;52.118;5.406;2023-08-31T08:12:26;101062.03;;;19.80;57.78
79221;BME280;72175;52.118;5.406;2023-08-31T08:14:52;101062.03;;;19.80;58.12
79221;BME280;72175;52.118;5.406;2023-08-31T08:17:19;101070.91;;;19.80;57.96
79221;BME280;72175;52.118;5.406;2023-08-31T08:19:45;101067.41;;;19.80;57.89
79221;BME280;72175;52.118;5.406;2023-08-31T08:22:12;101074.41;;;19.81;58.18
79221;BME280;72175;52.118;5.406;2023-08-31T08:24:38;101078.13;;;19.80;57.99
79221;BME280;72175;52.118;5.406;2023-08-31T08:27:08;101073.59;;;19.80;57.93
79221;BME280;72175;52.118;5.406;2023-08-31T08:29:45;101070.69;;;19.82;57.65
79221;BME280;72175;52.118;5.406;2023-08-31T08:32:12;101079.59;;;19.82;58.06
79221;BME280;72175;52.118;5.406;2023-08-31T08:34:38;101080.59;;;19.81;57.96
79221;BME280;72175;52.118;5.406;2023-08-31T08:37:05;101073.38;;;19.82;57.91
79221;BME280;72175;52.118;5.406;2023-08-31T08:39:31;101081.44;;;19.82;58.30
79221;BME280;72175;52.118;5.406;2023-08-31T08:41:58;101085.78;;;19.83;57.89
79221;BME280;72175;52.118;5.406;2023-08-31T08:44:26;101078.75;;;19.82;58.05
79221;BME280;72175;52.118;5.406;2023-08-31T08:46:59;101084.94;;;19.82;58.29
79221;BME280;72175;52.118;5.406;2023-08-31T08:49:26;101084.13;;;19.82;58.20
79221;BME280;72175;52.118;5.406;2023-08-31T08:51:53;101083.09;;;19.83;58.34
79221;BME280;72175;52.118;5.406;2023-08-31T08:54:22;101087.44;;;19.84;58.04
79221;BME280;72175;52.118;5.406;2023-08-31T08:56:48;101092.63;;;19.85;58.55
79221;BME280;72175;52.118;5.406;2023-08-31T08:59:15;101085.22;;;19.87;58.10
79221;BME280;72175;52.118;5.406;2023-08-31T09:01:43;101084.19;;;19.88;58.47
79221;BME280;72175;52.118;5.406;2023-08-31T09:04:10;101085.84;;;19.89;58.88
79221;BME280;72175;52.118;5.406;2023-08-31T09:06:36;101082.16;;;19.90;58.88
79221;BME280;72175;52.118;5.406;2023-08-31T09:09:03;101088.16;;;19.92;59.03
79221;BME280;72175;52.118;5.406;2023-08-31T09:11:30;101096.03;;;19.94;59.33
79221;BME280;72175;52.118;5.406;2023-08-31T09:13:57;101085.09;;;19.96;59.17
79221;BME280;72175;52.118;5.406;2023-08-31T09:16:25;101084.25;;;19.95;59.00
79221;BME280;72175;52.118;5.406;2023-08-31T09:18:58;101087.56;;;19.97;58.99
79221;BME280;72175;52.118;5.406;2023-08-31T09:21:38;101083.03;;;19.98;59.01
79221;BME280;72175;52.118;5.406;2023-08-31T09:24:07;101086.34;;;20.00;59.07
79221;BME280;72175;52.118;5.406;2023-08-31T09:26:47;101087.19;;;20.00;58.89
79221;BME280;72175;52.118;5.406;2023-08-31T09:29:15;101087.19;;;20.00;58.83
79221;BME280;72175;52.118;5.406;2023-08-31T09:31:43;101092.56;;;20.00;58.79
79221;BME280;72175;52.118;5.406;2023-08-31T09:34:11;101082.63;;;20.01;58.90
79221;BME280;72175;52.118;5.406;2023-08-31T09:36:38;101095.22;;;20.00;59.02
79221;BME280;72175;52.118;5.406;2023-08-31T09:39:08;101092.56;;;20.00;59.30
79221;BME280;72175;52.118;5.406;2023-08-31T09:41:53;101100.59;;;20.00;58.96
79221;BME280;72175;52.118;5.406;2023-08-31T09:44:20;101103.28;;;20.00;58.91
79221;BME280;72175;52.118;5.406;2023-08-31T09:46:47;101102.28;;;20.01;59.00
79221;BME280;72175;52.118;5.406;2023-08-31T09:49:16;101089.66;;;20.02;59.15
79221;BME280;72175;52.118;5.406;2023-08-31T09:51:45;101093.00;;;20.04;59.31
79221;BME280;72175;52.118;5.406;2023-08-31T09:54:20;101087.63;;;20.04;59.36
79221;BME280;72175;52.118;5.406;2023-08-31T09:56:49;101086.59;;;20.05;59.50
79221;BME280;72175;52.118;5.406;2023-08-31T09:59:16;101091.78;;;20.06;59.51
79221;BME280;72175;52.118;5.406;2023-08-31T10:01:45;101089.94;;;20.07;59.13
79221;BME280;72175;52.118;5.406;2023-08-31T10:04:13;101101.31;;;20.09;59.45
79221;BME280;72175;52.118;5.406;2023-08-31T10:06:40;101093.91;;;20.11;59.38
79221;BME280;72175;52.118;5.406;2023-08-31T10:09:08;101089.56;;;20.10;59.34
79221;BME280;72175;52.118;5.406;2023-08-31T10:11:39;101093.72;;;20.12;59.31
79221;BME280;72175;52.118;5.406;2023-08-31T10:14:07;101087.28;;;20.13;59.42
79221;BME280;72175;52.118;5.406;2023-08-31T10:16:37;101089.78;;;20.15;59.28
79221;BME280;72175;52.118;5.406;2023-08-31T10:19:07;101095.16;;;20.15;59.27
79221;BME280;72175;52.118;5.406;2023-08-31T10:21:37;101092.25;;;20.16;59.10
79221;BME280;72175;52.118;5.406;2023-08-31T10:24:05;101089.38;;;20.18;58.92
79221;BME280;72175;52.118;5.406;2023-08-31T10:26:33;101101.81;;;20.19;58.77
79221;BME280;72175;52.118;5.406;2023-08-31T10:29:05;101092.72;;;20.20;58.73
79221;BME280;72175;52.118;5.406;2023-08-31T10:31:33;101088.19;;;20.20;58.72
79221;BME280;72175;52.118;5.406;2023-08-31T10:34:05;101088.19;;;20.20;58.79
79221;BME280;72175;52.118;5.406;2023-08-31T10:36:43;101087.97;;;20.22;58.71
79221;BME280;72175;52.118;5.406;2023-08-31T10:39:18;101092.34;;;20.23;58.55
79221;BME280;72175;52.118;5.406;2023-08-31T10:41:53;101093.16;;;20.23;58.60
79221;BME280;72175;52.118;5.406;2023-08-31T10:44:30;101079.53;;;20.25;58.64
79221;BME280;72175;52.118;5.406;2023-08-31T10:47:00;101088.44;;;20.25;58.59
79221;BME280;72175;52.118;5.406;2023-08-31T10:49:26;101095.47;;;20.26;58.26
79221;BME280;72175;52.118;5.406;2023-08-31T10:52:00;101093.59;;;20.27;58.45
79221;BME280;72175;52.118;5.406;2023-08-31T10:54:54;101093.41;;;20.29;58.33
79221;BME280;72175;52.118;5.406;2023-08-31T10:57:29;101086.19;;;20.29;58.18
79221;BME280;72175;52.118;5.406;2023-08-31T10:59:55;101096.94;;;20.29;58.34
79221;BME280;72175;52.118;5.406;2023-08-31T11:02:41;101095.06;;;20.30;58.08
79221;BME280;72175;52.118;5.406;2023-08-31T11:05:12;101086.19;;;20.29;57.99
79221;BME280;72175;52.118;5.406;2023-08-31T11:07:42;101085.34;;;20.29;57.85
79221;BME280;72175;52.118;5.406;2023-08-31T11:12:40;101098.56;;;20.30;57.82
79221;BME280;72175;52.118;5.406;2023-08-31T11:15:08;101089.47;;;20.31;57.88
79221;BME280;72175;52.118;5.406;2023-08-31T11:17:36;101103.75;;;20.32;57.93
79221;BME280;72175;52.118;5.406;2023-08-31T11:20:03;101090.31;;;20.32;57.96
79221;BME280;72175;52.118;5.406;2023-08-31T11:22:32;101103.75;;;20.32;57.67
79221;BME280;72175;52.118;5.406;2023-08-31T11:24:59;101106.44;;;20.32;57.75
79221;BME280;72175;52.118;5.406;2023-08-31T11:27:27;101100.03;;;20.33;57.92
79221;BME280;72175;52.118;5.406;2023-08-31T11:29:54;101114.31;;;20.33;57.77
79221;BME280;72175;52.118;5.406;2023-08-31T11:32:23;101117.00;;;20.33;57.54
79221;BME280;72175;52.118;5.406;2023-08-31T11:34:50;101109.78;;;20.34;57.68
79221;BME280;72175;52.118;5.406;2023-08-31T11:37:17;101097.34;;;20.33;57.66
79221;BME280;72175;52.118;5.406;2023-08-31T11:39:53;101106.06;;;20.35;57.58
79221;BME280;72175;52.118;5.406;2023-08-31T11:42:21;101100.69;;;20.35;57.51
79221;BME280;72175;52.118;5.406;2023-08-31T11:44:49;101108.75;;;20.35;57.52
79221;BME280;72175;52.118;5.406;2023-08-31T11:47:17;101106.88;;;20.35;57.58
79221;BME280;72175;52.118;5.406;2023-08-31T11:49:45;101108.75;;;20.35;57.64
79221;BME280;72175;52.118;5.406;2023-08-31T11:52:12;101117.00;;;20.33;57.89
79221;BME280;72175;52.118;5.406;2023-08-31T11:54:41;101105.59;;;20.31;57.80
79221;BME280;72175;52.118;5.406;2023-08-31T11:57:11;101111.81;;;20.32;58.03
79221;BME280;72175;52.118;5.406;2023-08-31T11:59:38;101101.25;;;20.30;57.52
79221;BME280;72175;52.118;5.406;2023-08-31T12:02:06;101112.22;;;20.29;57.84
79221;BME280;72175;52.118;5.406;2023-08-31T12:04:44;101103.34;;;20.28;57.81
79221;BME280;72175;52.118;5.406;2023-08-31T12:07:16;101106.03;;;20.28;57.80
79221;BME280;72175;52.118;5.406;2023-08-31T12:09:43;101107.69;;;20.29;57.60
79221;BME280;72175;52.118;5.406;2023-08-31T12:12:13;101103.53;;;20.26;57.68
79221;BME280;72175;52.118;5.406;2023-08-31T12:14:40;101101.03;;;20.25;57.70
79221;BME280;72175;52.118;5.406;2023-08-31T12:17:08;101103.91;;;20.23;57.81
79221;BME280;72175;52.118;5.406;2023-08-31T12:19:38;101103.09;;;20.23;57.82
79221;BME280;72175;52.118;5.406;2023-08-31T12:22:05;101104.09;;;20.22;57.92
79221;BME280;72175;52.118;5.406;2023-08-31T12:24:40;101105.13;;;20.21;57.92
79221;BME280;72175;52.118;5.406;2023-08-31T12:27:08;101115.88;;;20.21;57.54
79221;BME280;72175;52.118;5.406;2023-08-31T12:29:35;101121.44;;;20.19;57.88
79221;BME280;72175;52.118;5.406;2023-08-31T12:32:03;101117.09;;;20.18;57.98
79221;BME280;72175;52.118;5.406;2023-08-31T12:34:30;101119.97;;;20.17;58.02
79221;BME280;72175;52.118;5.406;2023-08-31T12:36:59;101121.63;;;20.18;57.80
79221;BME280;72175;52.118;5.406;2023-08-31T12:39:27;101127.00;;;20.18;57.93
79221;BME280;72175;52.118;5.406;2023-08-31T12:41:53;101119.13;;;20.16;58.24
79221;BME280;72175;52.118;5.406;2023-08-31T12:44:31;101121.00;;;20.16;58.17
79221;BME280;72175;52.118;5.406;2023-08-31T12:46:57;101126.38;;;20.16;58.00
79221;BME280;72175;52.118;5.406;2023-08-31T12:49:24;101117.47;;;20.15;58.39
79221;BME280;72175;52.118;5.406;2023-08-31T12:51:50;101117.66;;;20.14;58.45
79221;BME280;72175;52.118;5.406;2023-08-31T12:54:18;101116.63;;;20.15;58.15
79221;BME280;72175;52.118;5.406;2023-08-31T12:56:45;101123.03;;;20.14;58.30
79221;BME280;72175;52.118;5.406;2023-08-31T12:59:12;101118.72;;;20.13;58.38
79221;BME280;72175;52.118;5.406;2023-08-31T13:01:38;101124.91;;;20.13;57.92
79221;BME280;72175;52.118;5.406;2023-08-31T13:04:05;101122.22;;;20.13;58.34